sensor_id;sensor_type;location;lat;lon;timestamp;temperature;humidity
3194;DHT22;1608;50.860;13.466;2023-02-15T00:00:16;1.90;99.90
3194;DHT22;1608;50.860;13.466;2023-02-15T00:02:43;1.90;99.90
3194;DHT22;1608;50.860;13.466;2023-02-15T00:05:10;2.00;99.90
3194;DHT22;1608;50.860;13.466;2023-02-15T00:07:38;2.00;99.90
3194;DHT22;1608;50.860;13.466;2023-02-15T00:10:06;1.90;99.90
3194;DHT22;1608;50.860;13.466;2023-02-15T00:12:33;1.90;99.90
3194;DHT22;1608;50.860;13.466;2023-02-15T00:15:00;1.90;99.90
3194;DHT22;1608;50.860;13.466;2023-02-15T00:17:27;1.90;99.90
3194;DHT22;1608;50.860;13.466;2023-02-15T00:19:54;1.80;99.90
3194;DHT22;1608;50.860;13.466;2023-02-15T00:22:21;1.80;99.90
3194;DHT22;1608;50.860;13.466;2023-02-15T00:24:49;1.80;99.90
3194;DHT22;1608;50.860;13.466;2023-02-15T00:27:16;1.80;99.90
3194;DHT22;1608;50.860;13.466;2023-02-15T00:29:43;1.80;99.90
3194;DHT22;1608;50.860;13.466;2023-02-15T00:32:09;1.80;99.90
3194;DHT22;1608;50.860;13.466;2023-02-15T00:34:36;1.80;99.90
3194;DHT22;1608;50.860;13.466;2023-02-15T00:37:03;1.70;99.90
3194;DHT22;1608;50.860;13.466;2023-02-15T00:39:30;1.70;99.90
3194;DHT22;1608;50.860;13.466;2023-02-15T00:41:58;1.70;99.90
3194;DHT22;1608;50.860;13.466;2023-02-15T00:44:25;1.70;99.90
3194;DHT22;1608;50.860;13.466;2023-02-15T00:46:52;1.60;99.90
3194;DHT22;1608;50.860;13.466;2023-02-15T00:49:18;1.50;99.90
3194;DHT22;1608;50.860;13.466;2023-02-15T00:51:45;1.40;99.90
3194;DHT22;1608;50.860;13.466;2023-02-15T00:54:12;1.40;99.90
3194;DHT22;1608;50.860;13.466;2023-02-15T00:56:39;1.40;99.90
3194;DHT22;1608;50.860;13.466;2023-02-15T00:59:08;1.40;99.90
3194;DHT22;1608;50.860;13.466;2023-02-15T01:01:35;1.40;99.90
3194;DHT22;1608;50.860;13.466;2023-02-15T01:04:02;1.40;99.90
3194;DHT22;1608;50.860;13.466;2023-02-15T01:06:29;1.30;99.90
3194;DHT22;1608;50.860;13.466;2023-02-15T01:08:55;1.30;99.90
3194;DHT22;1608;50.860;13.466;2023-02-15T01:11:23;1.20;99.90
3194;DHT22;1608;50.860;13.466;2023-02-15T01:13:51;1.20;99.90
3194;DHT22;1608;50.860;13.466;2023-02-15T01:16:19;1.20;99.90
3194;DHT22;1608;50.860;13.466;2023-02-15T01:18:46;1.20;99.90
3194;DHT22;1608;50.860;13.466;2023-02-15T01:21:16;1.20;99.90
3194;DHT22;1608;50.860;13.466;2023-02-15T01:23:43;1.20;99.90
3194;DHT22;1608;50.860;13.466;2023-02-15T01:26:10;1.30;99.90
3194;DHT22;1608;50.860;13.466;2023-02-15T01:28:37;1.30;99.90
3194;DHT22;1608;50.860;13.466;2023-02-15T01:31:05;1.20;99.90
3194;DHT22;1608;50.860;13.466;2023-02-15T01:33:34;1.30;99.90
3194;DHT22;1608;50.860;13.466;2023-02-15T01:36:02;1.30;99.90
3194;DHT22;1608;50.860;13.466;2023-02-15T01:38:29;1.20;99.90
3194;DHT22;1608;50.860;13.466;2023-02-15T01:40:55;1.20;99.90
3194;DHT22;1608;50.860;13.466;2023-02-15T01:43:45;1.20;99.90
3194;DHT22;1608;50.860;13.466;2023-02-15T01:46:13;1.20;99.90
3194;DHT22;1608;50.860;13.466;2023-02-15T01:48:45;1.20;99.90
3194;DHT22;1608;50.860;13.466;2023-02-15T01:51:14;1.20;99.90
3194;DHT22;1608;50.860;13.466;2023-02-15T01:53:45;1.20;99.90
3194;DHT22;1608;50.860;13.466;2023-02-15T01:56:17;1.30;99.90
3194;DHT22;1608;50.860;13.466;2023-02-15T01:58:45;1.30;99.90
3194;DHT22;1608;50.860;13.466;2023-02-15T02:01:13;1.20;99.90
3194;DHT22;1608;50.860;13.466;2023-02-15T02:03:49;1.20;99.90
3194;DHT22;1608;50.860;13.466;2023-02-15T02:06:21;1.20;99.90
3194;DHT22;1608;50.860;13.466;2023-02-15T02:08:48;1.20;99.90
3194;DHT22;1608;50.860;13.466;2023-02-15T02:11:15;1.20;99.90
3194;DHT22;1608;50.860;13.466;2023-02-15T02:13:43;1.10;99.90
3194;DHT22;1608;50.860;13.466;2023-02-15T02:16:16;1.00;99.90
3194;DHT22;1608;50.860;13.466;2023-02-15T02:18:52;1.00;99.90
3194;DHT22;1608;50.860;13.466;2023-02-15T02:21:47;1.00;99.90
3194;DHT22;1608;50.860;13.466;2023-02-15T02:24:43;1.10;99.90
3194;DHT22;1608;50.860;13.466;2023-02-15T02:27:29;1.10;99.90
3194;DHT22;1608;50.860;13.466;2023-02-15T02:30:25;1.10;99.90
3194;DHT22;1608;50.860;13.466;2023-02-15T02:36:08;1.00;99.90
3194;DHT22;1608;50.860;13.466;2023-02-15T02:38:46;1.00;99.90
3194;DHT22;1608;50.860;13.466;2023-02-15T02:41:20;1.00;99.90
3194;DHT22;1608;50.860;13.466;2023-02-15T02:43:53;1.00;99.90
3194;DHT22;1608;50.860;13.466;2023-02-15T02:46:27;0.90;99.90
3194;DHT22;1608;50.860;13.466;2023-02-15T02:48:57;0.90;99.90
3194;DHT22;1608;50.860;13.466;2023-02-15T02:51:24;0.90;99.90
3194;DHT22;1608;50.860;13.466;2023-02-15T02:53:52;0.90;99.90
3194;DHT22;1608;50.860;13.466;2023-02-15T02:56:25;0.90;99.90
3194;DHT22;1608;50.860;13.466;2023-02-15T02:58:56;0.90;99.90
3194;DHT22;1608;50.860;13.466;2023-02-15T03:01:31;0.90;99.90
3194;DHT22;1608;50.860;13.466;2023-02-15T03:04:03;0.80;99.90
3194;DHT22;1608;50.860;13.466;2023-02-15T03:06:36;1.10;99.90
3194;DHT22;1608;50.860;13.466;2023-02-15T03:09:08;0.80;99.90
3194;DHT22;1608;50.860;13.466;2023-02-15T03:11:40;0.70;99.90
3194;DHT22;1608;50.860;13.466;2023-02-15T03:14:08;0.80;99.90
3194;DHT22;1608;50.860;13.466;2023-02-15T03:16:36;0.80;99.90
3194;DHT22;1608;50.860;13.466;2023-02-15T03:19:08;0.80;99.90
3194;DHT22;1608;50.860;13.466;2023-02-15T03:21:42;0.70;99.90
3194;DHT22;1608;50.860;13.466;2023-02-15T03:24:17;0.60;99.90
3194;DHT22;1608;50.860;13.466;2023-02-15T03:26:50;0.60;99.90
3194;DHT22;1608;50.860;13.466;2023-02-15T03:29:19;0.70;99.90
3194;DHT22;1608;50.860;13.466;2023-02-15T03:31:49;0.80;99.90
3194;DHT22;1608;50.860;13.466;2023-02-15T03:34:18;0.60;99.90
3194;DHT22;1608;50.860;13.466;2023-02-15T03:36:50;0.50;99.90
3194;DHT22;1608;50.860;13.466;2023-02-15T03:39:21;0.50;99.90
3194;DHT22;1608;50.860;13.466;2023-02-15T03:41:56;0.50;99.90
3194;DHT22;1608;50.860;13.466;2023-02-15T03:44:28;0.60;99.90
3194;DHT22;1608;50.860;13.466;2023-02-15T03:47:00;0.50;99.90
3194;DHT22;1608;50.860;13.466;2023-02-15T03:49:36;0.50;99.90
3194;DHT22;1608;50.860;13.466;2023-02-15T03:52:06;0.60;99.90
3194;DHT22;1608;50.860;13.466;2023-02-15T03:54:35;0.50;99.90
3194;DHT22;1608;50.860;13.466;2023-02-15T03:57:11;0.50;99.90
3194;DHT22;1608;50.860;13.466;2023-02-15T03:59:56;0.50;99.90
3194;DHT22;1608;50.860;13.466;2023-02-15T04:02:48;0.70;99.90
3194;DHT22;1608;50.860;13.466;2023-02-15T04:05:20;0.50;99.90
3194;DHT22;1608;50.860;13.466;2023-02-15T04:07:47;0.90;99.90
3194;DHT22;1608;50.860;13.466;2023-02-15T04:10:14;0.70;99.90
3194;DHT22;1608;50.860;13.466;2023-02-15T04:12:58;0.40;99.90
3194;DHT22;1608;50.860;13.466;2023-02-15T04:15:25;0.50;99.90
3194;DHT22;1608;50.860;13.466;2023-02-15T04:18:09;0.40;99.90
3194;DHT22;1608;50.860;13.466;2023-02-15T04:20:38;0.30;99.90
3194;DHT22;1608;50.860;13.466;2023-02-15T04:23:22;0.20;99.90
3194;DHT22;1608;50.860;13.466;2023-02-15T04:26:06;0.40;99.90
3194;DHT22;1608;50.860;13.466;2023-02-15T04:28:33;0.10;99.90
3194;DHT22;1608;50.860;13.466;2023-02-15T04:31:00;0.00;99.90
3194;DHT22;1608;50.860;13.466;2023-02-15T04:33:26;0.20;99.90
3194;DHT22;1608;50.860;13.466;2023-02-15T04:35:55;0.00;99.90
3194;DHT22;1608;50.860;13.466;2023-02-15T04:38:22;0.10;99.90
3194;DHT22;1608;50.860;13.466;2023-02-15T04:40:50;0.30;99.90
3194;DHT22;1608;50.860;13.466;2023-02-15T04:43:17;-0.10;99.90
3194;DHT22;1608;50.860;13.466;2023-02-15T04:45:48;0.00;99.90
3194;DHT22;1608;50.860;13.466;2023-02-15T04:48:15;0.10;99.90
3194;DHT22;1608;50.860;13.466;2023-02-15T04:50:42;0.20;99.90
3194;DHT22;1608;50.860;13.466;2023-02-15T04:53:11;0.10;99.90
3194;DHT22;1608;50.860;13.466;2023-02-15T04:55:38;0.20;99.90
3194;DHT22;1608;50.860;13.466;2023-02-15T04:58:05;0.30;99.90
3194;DHT22;1608;50.860;13.466;2023-02-15T05:00:31;0.50;99.90
3194;DHT22;1608;50.860;13.466;2023-02-15T05:02:58;0.40;99.90
3194;DHT22;1608;50.860;13.466;2023-02-15T05:05:25;0.30;99.90
3194;DHT22;1608;50.860;13.466;2023-02-15T05:07:52;0.30;99.90
3194;DHT22;1608;50.860;13.466;2023-02-15T05:10:20;0.50;99.90
3194;DHT22;1608;50.860;13.466;2023-02-15T05:12:47;0.30;99.90
3194;DHT22;1608;50.860;13.466;2023-02-15T05:15:14;0.10;99.90
3194;DHT22;1608;50.860;13.466;2023-02-15T05:17:41;0.30;99.90
3194;DHT22;1608;50.860;13.466;2023-02-15T05:20:09;0.30;99.90
3194;DHT22;1608;50.860;13.466;2023-02-15T05:22:36;0.10;99.90
3194;DHT22;1608;50.860;13.466;2023-02-15T05:25:02;0.20;99.90
3194;DHT22;1608;50.860;13.466;2023-02-15T05:27:48;0.20;99.90
3194;DHT22;1608;50.860;13.466;2023-02-15T05:30:32;0.50;99.90
3194;DHT22;1608;50.860;13.466;2023-02-15T05:32:59;0.00;99.90
3194;DHT22;1608;50.860;13.466;2023-02-15T05:35:26;0.20;99.90
3194;DHT22;1608;50.860;13.466;2023-02-15T05:37:53;0.10;99.90
3194;DHT22;1608;50.860;13.466;2023-02-15T05:40:20;-0.10;99.90
3194;DHT22;1608;50.860;13.466;2023-02-15T05:42:48;-0.10;99.90
3194;DHT22;1608;50.860;13.466;2023-02-15T05:45:15;0.10;99.90
3194;DHT22;1608;50.860;13.466;2023-02-15T05:47:42;0.00;99.90
3194;DHT22;1608;50.860;13.466;2023-02-15T05:50:09;0.10;99.90
3194;DHT22;1608;50.860;13.466;2023-02-15T05:52:37;0.00;99.90
3194;DHT22;1608;50.860;13.466;2023-02-15T05:55:04;0.00;99.90
3194;DHT22;1608;50.860;13.466;2023-02-15T05:57:32;0.10;99.90
3194;DHT22;1608;50.860;13.466;2023-02-15T06:00:00;0.90;99.90
3194;DHT22;1608;50.860;13.466;2023-02-15T06:02:29;0.00;99.90
3194;DHT22;1608;50.860;13.466;2023-02-15T06:04:56;0.10;99.90
3194;DHT22;1608;50.860;13.466;2023-02-15T06:07:23;0.10;99.90
3194;DHT22;1608;50.860;13.466;2023-02-15T06:09:50;0.10;99.90
3194;DHT22;1608;50.860;13.466;2023-02-15T06:12:16;0.40;99.90
3194;DHT22;1608;50.860;13.466;2023-02-15T06:14:43;0.10;99.90
3194;DHT22;1608;50.860;13.466;2023-02-15T06:17:11;0.10;99.90
3194;DHT22;1608;50.860;13.466;2023-02-15T06:19:38;0.10;99.90
3194;DHT22;1608;50.860;13.466;2023-02-15T06:22:05;0.10;99.90
3194;DHT22;1608;50.860;13.466;2023-02-15T06:24:32;0.00;99.90
3194;DHT22;1608;50.860;13.466;2023-02-15T06:26:59;0.10;99.90
3194;DHT22;1608;50.860;13.466;2023-02-15T06:29:26;0.20;99.90
3194;DHT22;1608;50.860;13.466;2023-02-15T06:31:53;0.00;99.90
3194;DHT22;1608;50.860;13.466;2023-02-15T06:34:21;-0.20;99.90
3194;DHT22;1608;50.860;13.466;2023-02-15T06:36:48;-0.30;99.90
3194;DHT22;1608;50.860;13.466;2023-02-15T06:39:14;-0.20;99.90
3194;DHT22;1608;50.860;13.466;2023-02-15T06:41:41;-0.20;99.90
3194;DHT22;1608;50.860;13.466;2023-02-15T06:44:08;-0.20;99.90
3194;DHT22;1608;50.860;13.466;2023-02-15T06:46:35;0.00;99.90
3194;DHT22;1608;50.860;13.466;2023-02-15T06:49:02;0.10;99.90
3194;DHT22;1608;50.860;13.466;2023-02-15T06:51:30;0.20;99.90
3194;DHT22;1608;50.860;13.466;2023-02-15T06:53:57;0.30;99.90
3194;DHT22;1608;50.860;13.466;2023-02-15T06:56:23;0.30;99.90
3194;DHT22;1608;50.860;13.466;2023-02-15T06:58:50;0.70;99.90
3194;DHT22;1608;50.860;13.466;2023-02-15T07:01:18;1.00;99.90
3194;DHT22;1608;50.860;13.466;2023-02-15T07:03:45;1.20;99.90
3194;DHT22;1608;50.860;13.466;2023-02-15T07:06:12;1.50;99.90
3194;DHT22;1608;50.860;13.466;2023-02-15T07:08:40;1.90;99.90
3194;DHT22;1608;50.860;13.466;2023-02-15T07:11:07;2.00;99.90
3194;DHT22;1608;50.860;13.466;2023-02-15T07:13:51;2.00;99.90
3194;DHT22;1608;50.860;13.466;2023-02-15T07:16:18;2.40;99.90
3194;DHT22;1608;50.860;13.466;2023-02-15T07:18:45;2.80;99.90
3194;DHT22;1608;50.860;13.466;2023-02-15T07:21:12;3.00;99.90
3194;DHT22;1608;50.860;13.466;2023-02-15T07:23:40;3.30;99.90
3194;DHT22;1608;50.860;13.466;2023-02-15T07:26:07;4.10;99.90
3194;DHT22;1608;50.860;13.466;2023-02-15T07:28:34;4.20;99.90
3194;DHT22;1608;50.860;13.466;2023-02-15T07:31:02;4.60;99.90
3194;DHT22;1608;50.860;13.466;2023-02-15T07:33:30;5.10;99.90
3194;DHT22;1608;50.860;13.466;2023-02-15T07:35:58;5.10;99.90
3194;DHT22;1608;50.860;13.466;2023-02-15T07:38:27;5.20;99.90
3194;DHT22;1608;50.860;13.466;2023-02-15T07:40:59;5.20;99.90
3194;DHT22;1608;50.860;13.466;2023-02-15T07:43:26;5.70;99.90
3194;DHT22;1608;50.860;13.466;2023-02-15T07:45:53;6.00;99.90
3194;DHT22;1608;50.860;13.466;2023-02-15T07:48:19;6.10;99.90
3194;DHT22;1608;50.860;13.466;2023-02-15T07:50:46;5.80;99.90
3194;DHT22;1608;50.860;13.466;2023-02-15T07:53:13;6.30;99.90
3194;DHT22;1608;50.860;13.466;2023-02-15T07:55:40;6.90;99.90
3194;DHT22;1608;50.860;13.466;2023-02-15T07:58:08;7.30;99.90
3194;DHT22;1608;50.860;13.466;2023-02-15T08:00:34;7.40;99.90
3194;DHT22;1608;50.860;13.466;2023-02-15T08:03:23;7.50;99.90
3194;DHT22;1608;50.860;13.466;2023-02-15T08:05:55;7.50;99.90
3194;DHT22;1608;50.860;13.466;2023-02-15T08:08:22;7.60;99.90
3194;DHT22;1608;50.860;13.466;2023-02-15T08:11:00;8.00;99.90
3194;DHT22;1608;50.860;13.466;2023-02-15T08:13:47;8.60;99.90
3194;DHT22;1608;50.860;13.466;2023-02-15T08:16:21;8.90;99.90
3194;DHT22;1608;50.860;13.466;2023-02-15T08:18:48;9.30;99.90
3194;DHT22;1608;50.860;13.466;2023-02-15T08:21:15;9.80;99.90
3194;DHT22;1608;50.860;13.466;2023-02-15T08:23:42;10.30;99.90
3194;DHT22;1608;50.860;13.466;2023-02-15T08:28:36;11.30;99.90
3194;DHT22;1608;50.860;13.466;2023-02-15T08:33:36;12.10;99.90
3194;DHT22;1608;50.860;13.466;2023-02-15T08:36:04;12.50;99.90
3194;DHT22;1608;50.860;13.466;2023-02-15T08:38:31;12.70;99.90
3194;DHT22;1608;50.860;13.466;2023-02-15T08:41:01;13.00;99.90
3194;DHT22;1608;50.860;13.466;2023-02-15T08:43:34;13.20;99.90
3194;DHT22;1608;50.860;13.466;2023-02-15T08:46:01;13.40;99.90
3194;DHT22;1608;50.860;13.466;2023-02-15T08:48:29;13.50;99.90
3194;DHT22;1608;50.860;13.466;2023-02-15T08:50:56;13.40;99.90
3194;DHT22;1608;50.860;13.466;2023-02-15T08:53:23;13.40;99.90
3194;DHT22;1608;50.860;13.466;2023-02-15T08:55:55;13.50;99.90
3194;DHT22;1608;50.860;13.466;2023-02-15T08:58:22;13.50;99.90
3194;DHT22;1608;50.860;13.466;2023-02-15T09:00:49;13.40;99.80
3194;DHT22;1608;50.860;13.466;2023-02-15T09:03:16;13.30;99.40
3194;DHT22;1608;50.860;13.466;2023-02-15T09:05:44;13.10;99.30
3194;DHT22;1608;50.860;13.466;2023-02-15T09:08:11;13.00;99.30
3194;DHT22;1608;50.860;13.466;2023-02-15T09:10:38;12.80;99.50
3194;DHT22;1608;50.860;13.466;2023-02-15T09:13:04;12.60;99.10
3194;DHT22;1608;50.860;13.466;2023-02-15T09:15:31;12.40;98.60
3194;DHT22;1608;50.860;13.466;2023-02-15T09:17:58;12.20;98.60
3194;DHT22;1608;50.860;13.466;2023-02-15T09:20:27;12.00;98.00
3194;DHT22;1608;50.860;13.466;2023-02-15T09:22:55;11.80;97.90
3194;DHT22;1608;50.860;13.466;2023-02-15T09:25:22;11.50;98.40
3194;DHT22;1608;50.860;13.466;2023-02-15T09:27:49;11.30;98.60
3194;DHT22;1608;50.860;13.466;2023-02-15T09:32:43;10.80;97.70
3194;DHT22;1608;50.860;13.466;2023-02-15T09:35:11;10.60;98.10
3194;DHT22;1608;50.860;13.466;2023-02-15T09:37:38;10.40;98.00
3194;DHT22;1608;50.860;13.466;2023-02-15T09:40:07;10.20;97.90
3194;DHT22;1608;50.860;13.466;2023-02-15T09:42:50;10.00;98.00
3194;DHT22;1608;50.860;13.466;2023-02-15T09:45:46;9.80;98.50
3194;DHT22;1608;50.860;13.466;2023-02-15T09:48:31;9.70;98.90
3194;DHT22;1608;50.860;13.466;2023-02-15T09:51:15;9.60;99.10
3194;DHT22;1608;50.860;13.466;2023-02-15T09:54:00;9.50;99.60
3194;DHT22;1608;50.860;13.466;2023-02-15T09:56:35;9.40;99.90
3194;DHT22;1608;50.860;13.466;2023-02-15T09:59:11;9.40;99.90
3194;DHT22;1608;50.860;13.466;2023-02-15T10:01:49;9.30;99.90
3194;DHT22;1608;50.860;13.466;2023-02-15T10:04:41;9.40;99.90
3194;DHT22;1608;50.860;13.466;2023-02-15T10:07:21;9.40;99.90
3194;DHT22;1608;50.860;13.466;2023-02-15T10:10:02;9.40;99.90
3194;DHT22;1608;50.860;13.466;2023-02-15T10:12:43;9.40;99.90
3194;DHT22;1608;50.860;13.466;2023-02-15T10:15:28;9.50;99.90
3194;DHT22;1608;50.860;13.466;2023-02-15T10:18:13;9.50;99.90
3194;DHT22;1608;50.860;13.466;2023-02-15T10:20:50;9.60;99.90
3194;DHT22;1608;50.860;13.466;2023-02-15T10:23:39;9.70;99.90
3194;DHT22;1608;50.860;13.466;2023-02-15T10:26:14;9.70;99.90
3194;DHT22;1608;50.860;13.466;2023-02-15T10:28:48;9.80;99.90
3194;DHT22;1608;50.860;13.466;2023-02-15T10:31:23;9.80;99.90
3194;DHT22;1608;50.860;13.466;2023-02-15T10:33:55;9.90;99.90
3194;DHT22;1608;50.860;13.466;2023-02-15T10:39:28;10.00;99.90
3194;DHT22;1608;50.860;13.466;2023-02-15T10:42:04;10.10;99.90
3194;DHT22;1608;50.860;13.466;2023-02-15T10:44:44;10.20;99.90
3194;DHT22;1608;50.860;13.466;2023-02-15T10:47:31;10.30;99.90
3194;DHT22;1608;50.860;13.466;2023-02-15T10:50:10;10.40;99.90
3194;DHT22;1608;50.860;13.466;2023-02-15T10:52:49;10.40;99.90
3194;DHT22;1608;50.860;13.466;2023-02-15T10:55:27;10.50;99.90
3194;DHT22;1608;50.860;13.466;2023-02-15T10:58:03;10.50;99.90
3194;DHT22;1608;50.860;13.466;2023-02-15T11:00:36;10.50;99.90
3194;DHT22;1608;50.860;13.466;2023-02-15T11:03:18;10.60;99.90
3194;DHT22;1608;50.860;13.466;2023-02-15T11:06:00;10.70;99.90
3194;DHT22;1608;50.860;13.466;2023-02-15T11:08:31;10.70;99.90
3194;DHT22;1608;50.860;13.466;2023-02-15T11:11:02;10.80;99.90
3194;DHT22;1608;50.860;13.466;2023-02-15T11:13:32;10.80;99.90
3194;DHT22;1608;50.860;13.466;2023-02-15T11:16:05;10.90;99.70
3194;DHT22;1608;50.860;13.466;2023-02-15T11:18:35;11.10;98.90
3194;DHT22;1608;50.860;13.466;2023-02-15T11:21:07;11.20;97.80
3194;DHT22;1608;50.860;13.466;2023-02-15T11:23:37;11.20;97.30
3194;DHT22;1608;50.860;13.466;2023-02-15T11:26:14;11.30;97.10
3194;DHT22;1608;50.860;13.466;2023-02-15T11:28:46;11.40;95.40
3194;DHT22;1608;50.860;13.466;2023-02-15T11:31:18;11.60;94.20
3194;DHT22;1608;50.860;13.466;2023-02-15T11:33:49;11.50;92.90
3194;DHT22;1608;50.860;13.466;2023-02-15T11:36:20;11.60;93.10
3194;DHT22;1608;50.860;13.466;2023-02-15T11:38:50;11.60;93.20
3194;DHT22;1608;50.860;13.466;2023-02-15T11:41:21;11.70;92.80
3194;DHT22;1608;50.860;13.466;2023-02-15T11:43:54;11.70;91.10
3194;DHT22;1608;50.860;13.466;2023-02-15T11:46:24;11.70;92.00
3194;DHT22;1608;50.860;13.466;2023-02-15T11:48:51;11.70;93.40
3194;DHT22;1608;50.860;13.466;2023-02-15T11:51:19;11.80;94.40
3194;DHT22;1608;50.860;13.466;2023-02-15T11:53:47;11.80;94.50
3194;DHT22;1608;50.860;13.466;2023-02-15T11:56:16;11.70;94.20
3194;DHT22;1608;50.860;13.466;2023-02-15T11:58:45;11.70;93.90
3194;DHT22;1608;50.860;13.466;2023-02-15T12:01:17;11.70;93.80
3194;DHT22;1608;50.860;13.466;2023-02-15T12:03:50;11.70;93.90
3194;DHT22;1608;50.860;13.466;2023-02-15T12:06:24;11.70;93.70
3194;DHT22;1608;50.860;13.466;2023-02-15T12:09:03;11.80;92.90
3194;DHT22;1608;50.860;13.466;2023-02-15T12:11:35;11.80;92.10
3194;DHT22;1608;50.860;13.466;2023-02-15T12:14:04;11.80;91.50
3194;DHT22;1608;50.860;13.466;2023-02-15T12:16:40;11.80;91.00
3194;DHT22;1608;50.860;13.466;2023-02-15T12:19:20;11.90;90.60
3194;DHT22;1608;50.860;13.466;2023-02-15T12:21:50;12.10;90.80
3194;DHT22;1608;50.860;13.466;2023-02-15T12:24:20;12.00;91.60
3194;DHT22;1608;50.860;13.466;2023-02-15T12:26:57;12.00;92.20
3194;DHT22;1608;50.860;13.466;2023-02-15T12:29:27;12.10;91.60
3194;DHT22;1608;50.860;13.466;2023-02-15T12:31:56;12.10;90.50
3194;DHT22;1608;50.860;13.466;2023-02-15T12:34:29;12.10;89.90
3194;DHT22;1608;50.860;13.466;2023-02-15T12:36:59;12.10;88.20
3194;DHT22;1608;50.860;13.466;2023-02-15T12:39:29;12.20;87.80
3194;DHT22;1608;50.860;13.466;2023-02-15T12:42:01;12.20;86.70
3194;DHT22;1608;50.860;13.466;2023-02-15T12:44:30;12.20;86.60
3194;DHT22;1608;50.860;13.466;2023-02-15T12:46:59;12.20;84.60
3194;DHT22;1608;50.860;13.466;2023-02-15T12:49:29;12.30;83.10
3194;DHT22;1608;50.860;13.466;2023-02-15T12:51:58;12.30;80.70
3194;DHT22;1608;50.860;13.466;2023-02-15T12:54:40;12.30;81.40
3194;DHT22;1608;50.860;13.466;2023-02-15T12:57:27;12.40;79.30
3194;DHT22;1608;50.860;13.466;2023-02-15T12:59:56;12.50;78.30
3194;DHT22;1608;50.860;13.466;2023-02-15T13:02:26;12.50;78.00
3194;DHT22;1608;50.860;13.466;2023-02-15T13:04:56;12.60;78.10
3194;DHT22;1608;50.860;13.466;2023-02-15T13:07:28;12.60;78.00
3194;DHT22;1608;50.860;13.466;2023-02-15T13:09:56;12.70;78.70
3194;DHT22;1608;50.860;13.466;2023-02-15T13:12:24;12.80;78.60
3194;DHT22;1608;50.860;13.466;2023-02-15T13:14:54;12.80;77.10
3194;DHT22;1608;50.860;13.466;2023-02-15T13:17:24;12.70;77.60
3194;DHT22;1608;50.860;13.466;2023-02-15T13:19:58;12.70;77.00
3194;DHT22;1608;50.860;13.466;2023-02-15T13:22:31;12.70;76.60
3194;DHT22;1608;50.860;13.466;2023-02-15T13:25:04;12.70;76.70
3194;DHT22;1608;50.860;13.466;2023-02-15T13:27:34;12.70;77.30
3194;DHT22;1608;50.860;13.466;2023-02-15T13:30:08;12.70;78.70
3194;DHT22;1608;50.860;13.466;2023-02-15T13:32:38;12.70;80.10
3194;DHT22;1608;50.860;13.466;2023-02-15T13:35:14;12.80;79.30
3194;DHT22;1608;50.860;13.466;2023-02-15T13:38:02;12.80;79.90
3194;DHT22;1608;50.860;13.466;2023-02-15T13:40:36;12.80;79.00
3194;DHT22;1608;50.860;13.466;2023-02-15T13:43:14;12.80;80.00
3194;DHT22;1608;50.860;13.466;2023-02-15T13:45:55;12.80;81.20
3194;DHT22;1608;50.860;13.466;2023-02-15T13:48:29;12.80;80.30
3194;DHT22;1608;50.860;13.466;2023-02-15T13:51:07;12.80;79.60
3194;DHT22;1608;50.860;13.466;2023-02-15T13:53:51;12.90;79.30
3194;DHT22;1608;50.860;13.466;2023-02-15T13:56:28;12.80;80.00
3194;DHT22;1608;50.860;13.466;2023-02-15T13:59:24;12.90;82.00
3194;DHT22;1608;50.860;13.466;2023-02-15T14:01:57;12.80;80.40
3194;DHT22;1608;50.860;13.466;2023-02-15T14:04:51;12.80;80.40
3194;DHT22;1608;50.860;13.466;2023-02-15T14:07:41;12.90;81.30
3194;DHT22;1608;50.860;13.466;2023-02-15T14:10:34;12.90;81.90
3194;DHT22;1608;50.860;13.466;2023-02-15T14:13:41;12.90;82.00
3194;DHT22;1608;50.860;13.466;2023-02-15T14:16:19;12.80;82.40
3194;DHT22;1608;50.860;13.466;2023-02-15T14:18:50;12.80;82.40
3194;DHT22;1608;50.860;13.466;2023-02-15T14:21:21;12.80;82.10
3194;DHT22;1608;50.860;13.466;2023-02-15T14:24:06;12.70;82.40
3194;DHT22;1608;50.860;13.466;2023-02-15T14:26:39;12.70;81.70
3194;DHT22;1608;50.860;13.466;2023-02-15T14:29:19;12.60;81.80
3194;DHT22;1608;50.860;13.466;2023-02-15T14:31:53;12.60;78.40
3194;DHT22;1608;50.860;13.466;2023-02-15T14:34:24;12.60;78.60
3194;DHT22;1608;50.860;13.466;2023-02-15T14:36:52;12.60;79.00
3194;DHT22;1608;50.860;13.466;2023-02-15T14:39:29;12.60;79.50
3194;DHT22;1608;50.860;13.466;2023-02-15T14:42:20;12.60;79.80
3194;DHT22;1608;50.860;13.466;2023-02-15T14:44:55;12.50;79.90
3194;DHT22;1608;50.860;13.466;2023-02-15T14:47:27;12.50;81.20
3194;DHT22;1608;50.860;13.466;2023-02-15T14:49:56;12.50;83.10
3194;DHT22;1608;50.860;13.466;2023-02-15T14:52:24;12.50;84.00
3194;DHT22;1608;50.860;13.466;2023-02-15T14:55:11;12.40;85.00
3194;DHT22;1608;50.860;13.466;2023-02-15T14:57:59;12.40;86.00
3194;DHT22;1608;50.860;13.466;2023-02-15T15:00:33;12.30;87.60
3194;DHT22;1608;50.860;13.466;2023-02-15T15:03:11;12.30;88.10
3194;DHT22;1608;50.860;13.466;2023-02-15T15:05:48;12.30;88.40
3194;DHT22;1608;50.860;13.466;2023-02-15T15:08:24;12.30;88.50
3194;DHT22;1608;50.860;13.466;2023-02-15T15:10:53;12.20;88.30
3194;DHT22;1608;50.860;13.466;2023-02-15T15:13:38;12.20;88.80
3194;DHT22;1608;50.860;13.466;2023-02-15T15:16:50;12.10;88.40
3194;DHT22;1608;50.860;13.466;2023-02-15T15:22:34;12.00;90.80
3194;DHT22;1608;50.860;13.466;2023-02-15T15:25:01;11.80;91.20
3194;DHT22;1608;50.860;13.466;2023-02-15T15:27:42;11.70;91.50
3194;DHT22;1608;50.860;13.466;2023-02-15T15:37:16;11.50;92.20
3194;DHT22;1608;50.860;13.466;2023-02-15T15:40:13;11.40;92.40
3194;DHT22;1608;50.860;13.466;2023-02-15T15:42:50;11.20;92.60
3194;DHT22;1608;50.860;13.466;2023-02-15T15:45:40;11.20;92.80
3194;DHT22;1608;50.860;13.466;2023-02-15T15:48:32;11.10;93.00
3194;DHT22;1608;50.860;13.466;2023-02-15T15:51:03;11.00;93.20
3194;DHT22;1608;50.860;13.466;2023-02-15T15:53:37;10.90;93.40
3194;DHT22;1608;50.860;13.466;2023-02-15T15:56:11;10.80;93.50
3194;DHT22;1608;50.860;13.466;2023-02-15T15:58:43;10.70;93.60
3194;DHT22;1608;50.860;13.466;2023-02-15T16:01:11;10.70;93.80
3194;DHT22;1608;50.860;13.466;2023-02-15T16:03:48;10.50;93.90
3194;DHT22;1608;50.860;13.466;2023-02-15T16:06:27;10.40;94.10
3194;DHT22;1608;50.860;13.466;2023-02-15T16:08:56;10.40;94.40
3194;DHT22;1608;50.860;13.466;2023-02-15T16:11:24;10.30;94.40
3194;DHT22;1608;50.860;13.466;2023-02-15T16:13:52;10.10;94.40
3194;DHT22;1608;50.860;13.466;2023-02-15T16:16:24;10.00;94.60
3194;DHT22;1608;50.860;13.466;2023-02-15T16:18:54;9.90;95.40
3194;DHT22;1608;50.860;13.466;2023-02-15T16:21:28;9.70;95.50
3194;DHT22;1608;50.860;13.466;2023-02-15T16:24:16;9.60;95.70
3194;DHT22;1608;50.860;13.466;2023-02-15T16:26:56;9.40;95.70
3194;DHT22;1608;50.860;13.466;2023-02-15T16:29:28;9.20;95.80
3194;DHT22;1608;50.860;13.466;2023-02-15T16:32:00;9.10;96.40
3194;DHT22;1608;50.860;13.466;2023-02-15T16:34:27;9.00;97.00
3194;DHT22;1608;50.860;13.466;2023-02-15T16:37:12;8.80;97.50
3194;DHT22;1608;50.860;13.466;2023-02-15T16:39:43;8.70;97.90
3194;DHT22;1608;50.860;13.466;2023-02-15T16:42:11;8.50;98.30
3194;DHT22;1608;50.860;13.466;2023-02-15T16:44:39;8.40;98.70
3194;DHT22;1608;50.860;13.466;2023-02-15T16:47:13;8.30;99.20
3194;DHT22;1608;50.860;13.466;2023-02-15T16:49:44;8.20;99.40